:

Weather - Helsinki-Vantaa - Query any day in the databaseView current weather

Weather data for a selected day (2006-01-01 -2017-07-26)

    Enter query date: (yyy-mm-dd)        <-     scroll days         ->

day curves

Low temperature°C +9.604:30  
High temperature°C +24.618:00  
Low wind chill°C 8.105:00  
Average temperature°C +17.3   
High wind speed (10 min) m/s 9.015:00  
Low pressurehPa 1012.219:00  
High pressurehPa 1017.700:30  
Low R.H% 3616:30  
High R.H% 10007:30  
Day weather data as a table

Date Time Temp
°C
Chill
°C
Pressure
hPA
Wind
m/s
Hum
%
Precip
mm
2017-05-19 23:30:00 17.7  17.4  1013.3 4.1 56 -
2017-05-19 23:00:00 18.0  17.6  1013.2 4.8 55 -
2017-05-19 22:30:00 18.3  17.9  1013.0 5.2 54 -
2017-05-19 22:00:00 18.7  18.5  1012.9 5.0 55 -
2017-05-19 21:30:00 19.7  19.7  1012.8 5.0 51 -
2017-05-19 21:00:00 21.2  ....  1012.7 5.5 45 -
2017-05-19 20:30:00 22.5  ....  1012.5 6.2 41 -
2017-05-19 20:00:00 23.3  ....  1012.4 5.9 39 -
2017-05-19 19:30:00 24.0  ....  1012.3 7.3 37 -
2017-05-19 19:00:00 24.1  ....  1012.2 6.6 38 -
2017-05-19 18:30:00 24.2  ....  1012.3 7.3 37 -
2017-05-19 18:00:00 24.6  ....  1012.5 7.4 37 -
2017-05-19 17:30:00 24.4  ....  1012.5 7.6 37 -
2017-05-19 17:00:00 24.4  ....  1012.7 8.5 37 -
2017-05-19 16:30:00 24.6  ....  1012.7 7.8 36 -
2017-05-19 16:00:00 24.2  ....  1012.9 8.6 37 -
2017-05-19 15:30:00 24.1  ....  1013.2 7.9 38 -
2017-05-19 15:00:00 23.9  ....  1013.3 9.0 38 -
2017-05-19 14:30:00 23.9  ....  1013.4 8.9 38 -
2017-05-19 14:00:00 23.6  ....  1013.6 8.9 39 -
2017-05-19 13:30:00 23.3  ....  1013.5 6.5 42 -
2017-05-19 13:00:00 21.8  ....  1013.7 7.0 48 -
2017-05-19 12:30:00 22.0  ....  1013.8 5.9 50 -
2017-05-19 12:00:00 20.7  ....  1014.0 6.2 52 -
2017-05-19 11:30:00 20.2  ....  1014.2 5.9 57 -
2017-05-19 11:00:00 18.6  18.3  1014.5 5.4 64 -
2017-05-19 10:30:00 17.6  17.3  1014.5 4.3 68 -
2017-05-19 10:00:00 16.1  15.6  1014.7 3.7 76 -
2017-05-19 09:30:00 14.5  13.7  1014.9 3.5 82 -
2017-05-19 09:00:00 13.0  11.9  1015.3 3.4 89 -
2017-05-19 08:30:00 12.1  10.2  1015.5 5.0 93 -
2017-05-19 08:00:00 12.7  11.1  1015.5 4.6 99 -
2017-05-19 07:30:00 11.7  10.3  1015.5 3.6 100 -
2017-05-19 07:00:00 11.1  9.4  1015.6 3.8 100 -
2017-05-19 06:30:00 10.8  9.1  1015.7 3.8 100 -
2017-05-19 06:00:00 10.3  8.9  1015.9 2.9 100 -
2017-05-19 05:30:00 10.0  8.2  1016.1 3.5 99 -
2017-05-19 05:00:00 9.8  8.1  1016.3 3.2 99 -
2017-05-19 04:30:00 9.6  8.3  1016.5 2.5 97 -
2017-05-19 04:00:00 9.7  8.5  1016.7 2.4 97 -
2017-05-19 03:30:00 10.0  9.4  1016.8 1.7 97 -
2017-05-19 03:00:00 10.2  9.7  1017.1 1.7 96 -
2017-05-19 02:30:00 10.4  9.6  1017.1 2.0 97 -
2017-05-19 02:00:00 10.4  9.6  1017.4 2.0 96 -
2017-05-19 01:30:00 10.7  10.0  1017.5 2.0 95 -
2017-05-19 01:00:00 10.6  9.6  1017.6 2.4 96 -
2017-05-19 00:30:00 10.4  9.1  1017.7 2.8 95 -
2017-05-19 00:00:00 10.8  9.5  1017.7 3.0 93 -
Unit conversions:
  • Temperature: 0 °C = 32 °F,  25 °C = 77 °F,  -25 °C = -13 °F  (degF = 32 +1.8*degC)
  • Wind speed:  1 m/s = 3,6 km/h = 2.23694 mph = 1.94387 kt